Terminal Aerodrome Forecast
Issued by NWS

Home | Current Version | Previous Version | Text Only | Print | Product List | Glossary On
Versions: 1 2 3 4 5 6 7 8 9 10 11 12 13 14
129
FTUS42 TJSJ 261720
TAFNCM
TAF
TNCM 261720Z 2618/2718 13008KT P6SM FEW018
     FM262200 10006KT P6SM VCSH SCT018
     FM271400 12013KT P6SM SCT025 SCT050=

USA.gov is the U.S. government's official web portal to all federal, state and local government web resources and services.